This is the latest recevied weather packets stored in our database for station/object N8VDS-10. If no packets are shown the sender has not sent any weather packets the latest 10 day(s).
| Time | Temp. | Humidity | Pressure | Rain* | Wind** | Luminosity | Snow |
|---|---|---|---|---|---|---|---|
| 1777693529 | 5° C | 54% | 1020.4 hPa | 0 mm | - | 0 W/m² | - |
| 1777693227 | 5° C | 53% | 1020.2 hPa | 0 mm | - | 0 W/m² | - |
| 1777692925 | 5° C | 54% | 1020.2 hPa | 0 mm | - | 0 W/m² | - |
| 1777692622 | 5° C | 53% | 1020.3 hPa | 0 mm | - | 0 W/m² | - |
| 1777692317 | 5° C | 54% | 1020.4 hPa | 0 mm | - | 0 W/m² | - |
| 1777692015 | 5° C | 55% | 1020.3 hPa | 0 mm | - | 0 W/m² | - |
| 1777691712 | 5° C | 53% | 1020.2 hPa | 0 mm | - | 0 W/m² | - |
| 1777691410 | 5° C | 55% | 1020.3 hPa | 0 mm | - | 0 W/m² | - |
| 1777691108 | 5° C | 55% | 1020.2 hPa | 0 mm | - | 0 W/m² | - |
| 1777690806 | 5° C | 54% | 1020.3 hPa | 0 mm | - | 0 W/m² | - |
| 1777690502 | 5° C | 55% | 1020.4 hPa | 0 mm | - | 0 W/m² | - |
| 1777690201 | 5° C | 57% | 1020.3 hPa | 0 mm | - | 0 W/m² | - |
| 1777689898 | 5° C | 57% | 1020.2 hPa | 0 mm | - | 0 W/m² | - |
| 1777689596 | 5° C | 59% | 1020.2 hPa | 0 mm | - | 0 W/m² | - |
| 1777689293 | 5° C | 58% | 1020.3 hPa | 0 mm | - | 0 W/m² | - |
| 1777688991 | 5° C | 58% | 1020.1 hPa | 0 mm | - | 0 W/m² | - |
| 1777688687 | 5° C | 58% | 1020.1 hPa | 0 mm | - | 0 W/m² | - |
| 1777687778 | 5° C | 57% | 1020 hPa | 0 mm | - | 0 W/m² | - |
| 1777674143 | 7.22° C | 55% | 1018.8 hPa | 0 mm | - | 73 W/m² | - |
| 1777673840 | 6.67° C | 55% | 1018.6 hPa | 0 mm | - | 70 W/m² | - |
| 1777673537 | 7.22° C | 55% | 1018.5 hPa | 0 mm | - | 73 W/m² | - |
| 1777673235 | 6.67° C | 56% | 1018.6 hPa | 0 mm | - | 76 W/m² | - |
| 1777672932 | 6.67° C | 58% | 1018.6 hPa | 0 mm | - | 80 W/m² | - |
| 1777672629 | 6.67° C | 59% | 1018.4 hPa | 0 mm | - | 91 W/m² | - |
| 1777672324 | 6.67° C | 58% | 1018.4 hPa | 0 mm | - | 87 W/m² | - |
* Rain latest hour (hover to see other rain measurements)
** Current wind speed in m/s (hover to see current wind gust speed)